createdAt,value
2023-02-12T00:01:39.077Z,18.43
2023-02-12T00:04:07.783Z,14.63
2023-02-12T00:06:36.440Z,22.20
2023-02-12T00:09:04.943Z,15.97
2023-02-12T00:11:33.335Z,15.83
2023-02-12T00:14:05.636Z,15.83
2023-02-12T00:16:35.432Z,15.63
2023-02-12T00:19:03.795Z,16.60
2023-02-12T00:21:32.179Z,16.70
2023-02-12T00:24:00.593Z,16.43
2023-02-12T00:26:29.554Z,15.30
2023-02-12T00:28:58.177Z,17.03
2023-02-12T00:31:29.355Z,15.00
2023-02-12T00:34:01.127Z,13.73
2023-02-12T00:36:32.414Z,16.30
2023-02-12T00:39:01.835Z,16.77
2023-02-12T00:41:30.930Z,16.70
2023-02-12T00:43:59.317Z,17.67
2023-02-12T00:46:28.308Z,19.20
2023-02-12T00:48:58.015Z,18.47
2023-02-12T00:51:26.383Z,19.20
2023-02-12T00:53:55.010Z,16.80
2023-02-12T00:56:23.426Z,21.60
2023-02-12T00:58:51.905Z,21.73
2023-02-12T01:01:20.750Z,24.00
2023-02-12T01:03:49.292Z,20.10
2023-02-12T01:06:18.954Z,22.57
2023-02-12T01:08:52.655Z,24.13
2023-02-12T01:11:21.612Z,19.90
2023-02-12T01:13:50.398Z,18.10
2023-02-12T01:16:22.934Z,22.77
2023-02-12T01:18:55.682Z,17.20
2023-02-12T01:21:29.100Z,19.70
2023-02-12T01:23:57.676Z,18.40
2023-02-12T01:26:27.504Z,16.60
2023-02-12T01:28:58.705Z,19.60
2023-02-12T01:31:30.802Z,21.53
2023-02-12T01:34:01.717Z,17.40
2023-02-12T01:36:32.723Z,19.83
2023-02-12T01:39:03.031Z,18.47
2023-02-12T01:41:34.800Z,16.80
2023-02-12T01:44:13.753Z,16.40
2023-02-12T01:46:44.076Z,15.43
2023-02-12T01:49:19.374Z,16.73
2023-02-12T01:51:55.041Z,15.53
2023-02-12T01:54:26.775Z,18.53
2023-02-12T01:56:55.758Z,18.07
2023-02-12T01:59:25.109Z,19.60
2023-02-12T02:01:56.063Z,21.50
2023-02-12T02:04:30.291Z,19.57
2023-02-12T02:07:03.139Z,21.20
2023-02-12T02:09:35.860Z,22.73
2023-02-12T02:12:22.464Z,20.17
2023-02-12T02:14:53.685Z,18.70
2023-02-12T02:17:40.407Z,19.63
2023-02-12T02:20:43.867Z,16.27
2023-02-12T02:23:53.238Z,18.70
2023-02-12T02:26:55.668Z,19.80
2023-02-12T02:30:14.900Z,21.20
2023-02-12T02:32:56.453Z,15.93
2023-02-12T02:35:33.863Z,20.30
2023-02-12T02:38:19.202Z,16.17
2023-02-12T02:40:55.961Z,22.10
2023-02-12T02:43:31.959Z,20.17
2023-02-12T02:46:07.141Z,19.10
2023-02-12T02:48:40.014Z,17.90
2023-02-12T02:51:14.303Z,19.10
2023-02-12T02:53:48.273Z,17.10
2023-02-12T02:56:21.211Z,18.73
2023-02-12T02:58:54.453Z,19.60
2023-02-12T03:01:28.257Z,20.07
2023-02-12T03:04:04.556Z,18.53
2023-02-12T03:06:40.297Z,18.80
2023-02-12T03:09:20.440Z,23.17
2023-02-12T03:11:50.973Z,23.40
2023-02-12T03:14:23.425Z,22.00
2023-02-12T03:16:58.565Z,23.10
2023-02-12T03:19:34.339Z,20.00
2023-02-12T03:22:07.241Z,19.23
2023-02-12T03:24:40.030Z,20.97
2023-02-12T03:27:13.854Z,19.43
2023-02-12T03:29:42.411Z,19.87
2023-02-12T03:32:25.051Z,19.23
2023-02-12T03:35:07.844Z,16.83
2023-02-12T03:37:41.776Z,18.73
2023-02-12T03:40:18.718Z,20.27
2023-02-12T03:42:56.424Z,23.33
2023-02-12T03:45:39.544Z,18.47
2023-02-12T03:48:14.146Z,22.53
2023-02-12T03:50:52.708Z,22.60
2023-02-12T03:53:21.291Z,18.37
2023-02-12T03:55:58.021Z,19.20
2023-02-12T03:58:30.537Z,21.27
2023-02-12T04:00:59.852Z,20.67
2023-02-12T04:03:28.455Z,19.60
2023-02-12T04:05:58.222Z,18.37
2023-02-12T04:08:28.601Z,22.27
2023-02-12T04:11:08.921Z,25.63
2023-02-12T04:13:50.994Z,19.53
2023-02-12T04:16:26.564Z,17.97
2023-02-12T04:18:55.616Z,19.23
2023-02-12T04:21:44.315Z,20.17
2023-02-12T04:24:20.109Z,20.87
2023-02-12T04:26:55.940Z,22.03
2023-02-12T04:29:33.368Z,22.77
2023-02-12T04:32:11.608Z,20.10
2023-02-12T04:34:48.242Z,21.37
2023-02-12T04:37:22.187Z,20.30
2023-02-12T04:39:53.158Z,21.93
2023-02-12T04:42:21.756Z,22.43
2023-02-12T04:44:50.095Z,22.37
2023-02-12T04:47:18.621Z,21.80
2023-02-12T04:49:46.954Z,22.23
2023-02-12T04:52:15.371Z,21.00
2023-02-12T04:54:45.165Z,19.60
2023-02-12T04:57:13.534Z,20.60
2023-02-12T04:59:41.977Z,19.63
2023-02-12T05:02:10.591Z,23.50
2023-02-12T05:04:38.916Z,19.37
2023-02-12T05:07:07.464Z,19.87
2023-02-12T05:09:35.844Z,24.70
2023-02-12T05:12:05.951Z,21.70
2023-02-12T05:14:34.312Z,20.00
2023-02-12T05:17:02.673Z,19.20
2023-02-12T05:19:31.117Z,21.80
2023-02-12T05:21:59.512Z,18.50
2023-02-12T05:24:28.106Z,16.80
2023-02-12T05:26:56.438Z,19.70
2023-02-12T05:29:26.144Z,21.80
2023-02-12T05:31:54.586Z,21.43
2023-02-12T05:34:23.211Z,19.73
2023-02-12T05:36:51.552Z,21.43
2023-02-12T05:39:19.962Z,22.20
2023-02-12T05:41:48.448Z,20.23
2023-02-12T05:44:17.060Z,18.53
2023-02-12T05:46:46.804Z,22.60
2023-02-12T05:49:15.239Z,21.83
2023-02-12T05:51:43.745Z,19.53
2023-02-12T05:54:12.322Z,19.57
2023-02-12T05:56:46.982Z,19.53
2023-02-12T05:59:18.515Z,24.00
2023-02-12T06:01:51.120Z,24.60
2023-02-12T06:04:23.746Z,17.80
2023-02-12T06:06:52.397Z,17.63
2023-02-12T06:09:21.422Z,18.00
2023-02-12T06:11:50.311Z,21.60
2023-02-12T06:14:21.089Z,22.97
2023-02-12T06:16:53.058Z,19.13
2023-02-12T06:19:22.144Z,17.70
2023-02-12T06:21:50.484Z,19.90
2023-02-12T06:24:19.465Z,22.03
2023-02-12T06:26:51.810Z,18.23
2023-02-12T06:29:21.141Z,20.53
2023-02-12T06:31:51.358Z,20.43
2023-02-12T06:34:19.785Z,21.23
2023-02-12T06:36:49.285Z,16.73
2023-02-12T06:39:18.546Z,18.60
2023-02-12T06:41:46.893Z,25.00
2023-02-12T06:44:16.105Z,18.00
2023-02-12T06:46:44.555Z,21.63
2023-02-12T06:49:16.242Z,23.10
2023-02-12T06:51:44.681Z,19.77
2023-02-12T06:54:15.756Z,18.77
2023-02-12T06:56:44.451Z,19.67
2023-02-12T06:59:16.790Z,17.50
2023-02-12T07:01:45.676Z,19.07
2023-02-12T07:04:15.591Z,18.80
2023-02-12T07:06:44.120Z,19.77
2023-02-12T07:09:12.561Z,20.13
2023-02-12T07:11:40.857Z,16.63
2023-02-12T07:14:09.285Z,16.97
2023-02-12T07:16:37.670Z,17.80
2023-02-12T07:19:06.007Z,18.97
2023-02-12T07:21:35.628Z,18.03
2023-02-12T07:24:04.195Z,19.27
2023-02-12T07:26:32.620Z,18.40
2023-02-12T07:29:00.926Z,20.90
2023-02-12T07:31:29.420Z,16.00
2023-02-12T07:34:00.085Z,19.13
2023-02-12T07:36:31.716Z,16.43
2023-02-12T07:39:02.103Z,24.10
2023-02-12T07:41:32.524Z,17.73
2023-02-12T07:44:06.772Z,16.40
2023-02-12T07:46:37.668Z,15.90
2023-02-12T07:49:08.118Z,14.57
2023-02-12T07:51:38.002Z,14.03
2023-02-12T07:54:07.956Z,16.57
2023-02-12T07:56:39.031Z,15.50
2023-02-12T07:59:11.415Z,13.53
2023-02-12T08:01:42.863Z,15.83
2023-02-12T08:04:14.338Z,14.37
2023-02-12T08:06:44.683Z,19.03
2023-02-12T08:09:18.277Z,14.40
2023-02-12T08:11:46.934Z,15.83
2023-02-12T08:14:19.266Z,18.17
2023-02-12T08:16:49.827Z,15.00
2023-02-12T08:19:22.552Z,14.10
2023-02-12T08:21:54.238Z,13.47
2023-02-12T08:24:24.551Z,13.00
2023-02-12T08:26:53.798Z,12.97
2023-02-12T08:29:25.202Z,13.87
2023-02-12T08:31:59.553Z,15.63
2023-02-12T08:34:30.968Z,13.63
2023-02-12T08:37:00.155Z,16.00
2023-02-12T08:39:31.901Z,11.20
2023-02-12T08:42:01.692Z,15.33
2023-02-12T08:44:30.819Z,13.53
2023-02-12T08:46:59.268Z,13.57
2023-02-12T08:49:32.412Z,13.03
2023-02-12T08:52:02.619Z,11.50
2023-02-12T08:54:33.523Z,14.57
2023-02-12T08:57:03.675Z,14.50
2023-02-12T08:59:32.492Z,16.07
2023-02-12T09:02:01.910Z,12.93
2023-02-12T09:04:31.113Z,12.43
2023-02-12T09:06:59.763Z,12.40
2023-02-12T09:09:28.381Z,12.40
2023-02-12T09:11:58.194Z,13.90
2023-02-12T09:14:26.504Z,13.50
2023-02-12T09:16:57.379Z,12.80
2023-02-12T09:19:27.220Z,12.00
2023-02-12T09:21:57.224Z,13.00
2023-02-12T09:24:27.640Z,14.10
2023-02-12T09:26:57.871Z,12.50
2023-02-12T09:29:26.318Z,12.93
2023-02-12T09:31:54.908Z,12.70
2023-02-12T09:34:23.457Z,13.17
2023-02-12T09:36:51.803Z,14.40
2023-02-12T09:39:20.403Z,13.13
2023-02-12T09:42:31.570Z,12.77
2023-02-12T09:45:09.392Z,12.23
2023-02-12T09:47:49.644Z,12.50
2023-02-12T09:50:44.633Z,14.53
2023-02-12T09:53:15.907Z,12.30
2023-02-12T09:55:45.866Z,14.20
2023-02-12T09:58:19.349Z,11.83
2023-02-12T10:00:47.848Z,15.87
2023-02-12T10:03:18.720Z,12.97
2023-02-12T10:05:52.950Z,12.40
2023-02-12T10:09:06.315Z,12.80
2023-02-12T10:12:01.679Z,13.80
2023-02-12T10:15:06.684Z,11.87
2023-02-12T10:17:46.120Z,13.53
2023-02-12T10:20:38.485Z,15.30
2023-02-12T10:23:45.880Z,13.07
2023-02-12T10:26:23.779Z,15.33
2023-02-12T10:28:53.997Z,15.57
2023-02-12T10:31:31.935Z,12.37
2023-02-12T10:34:00.459Z,14.50
2023-02-12T10:36:43.398Z,14.87
2023-02-12T10:39:22.672Z,13.33
2023-02-12T10:42:00.018Z,9.70
2023-02-12T10:44:28.922Z,13.60
2023-02-12T10:46:58.824Z,13.70
2023-02-12T10:49:27.546Z,14.53
2023-02-12T10:52:10.822Z,14.80
2023-02-12T10:54:43.126Z,14.33
2023-02-12T10:57:22.793Z,15.63
2023-02-12T10:59:54.043Z,12.17
2023-02-12T11:02:28.371Z,11.87
2023-02-12T11:04:59.215Z,12.50
2023-02-12T11:07:29.484Z,13.77
2023-02-12T11:09:58.873Z,13.87
2023-02-12T11:12:36.856Z,14.53
2023-02-12T11:15:15.446Z,16.97
2023-02-12T11:17:56.716Z,14.60
2023-02-12T11:20:29.215Z,15.13
2023-02-12T11:23:00.612Z,14.97
2023-02-12T11:25:32.063Z,15.87
2023-02-12T11:28:04.327Z,14.83
2023-02-12T11:30:34.274Z,18.13
2023-02-12T11:33:29.751Z,15.80
2023-02-12T11:36:04.450Z,16.33
2023-02-12T11:38:39.907Z,15.70
2023-02-12T11:41:25.729Z,17.10
2023-02-12T11:43:55.423Z,16.30
2023-02-12T11:46:27.790Z,17.03
2023-02-12T11:49:00.846Z,17.80
2023-02-12T11:51:32.601Z,16.23
2023-02-12T11:54:04.234Z,16.10
2023-02-12T11:56:45.153Z,18.43
2023-02-12T11:59:30.791Z,18.93
2023-02-12T12:02:05.543Z,18.40
2023-02-12T12:04:37.248Z,21.60
2023-02-12T12:07:16.114Z,26.10
2023-02-12T12:09:50.424Z,22.93
2023-02-12T12:12:26.651Z,25.17
2023-02-12T12:15:18.992Z,23.10
2023-02-12T12:18:11.340Z,20.03
2023-02-12T12:20:48.545Z,26.40
2023-02-12T12:23:21.931Z,22.77
2023-02-12T12:25:53.886Z,28.50
2023-02-12T12:28:36.069Z,22.80
2023-02-12T12:31:11.917Z,31.37
2023-02-12T12:33:45.761Z,26.40
2023-02-12T12:36:52.199Z,28.07
2023-02-12T12:39:33.036Z,25.10
2023-02-12T12:42:38.520Z,22.17
2023-02-12T12:45:35.663Z,27.33
2023-02-12T12:48:19.020Z,25.70
2023-02-12T12:51:19.411Z,23.90
2023-02-12T12:54:18.941Z,26.20
2023-02-12T12:56:59.615Z,30.03
2023-02-12T12:59:54.037Z,26.00
2023-02-12T13:03:17.538Z,22.93
2023-02-12T13:06:15.993Z,23.57
2023-02-12T13:09:07.153Z,28.40
2023-02-12T13:11:49.099Z,22.70
2023-02-12T13:14:32.437Z,24.07
2023-02-12T13:17:10.826Z,27.77
2023-02-12T13:19:54.312Z,23.00
2023-02-12T13:22:31.484Z,25.00
2023-02-12T13:25:08.113Z,29.23
2023-02-12T13:27:42.358Z,28.00
2023-02-12T13:30:23.328Z,29.80
2023-02-12T13:33:05.945Z,25.13
2023-02-12T13:35:39.106Z,29.47
2023-02-12T13:38:09.711Z,25.73
2023-02-12T13:40:38.604Z,29.17
2023-02-12T13:43:23.488Z,26.03
2023-02-12T13:46:01.888Z,26.50
2023-02-12T13:48:52.673Z,28.10
2023-02-12T13:51:37.449Z,26.73
2023-02-12T13:54:30.977Z,28.63
2023-02-12T13:57:02.480Z,29.63
2023-02-12T13:59:48.053Z,34.50
2023-02-12T14:02:53.526Z,29.57
2023-02-12T14:05:32.715Z,30.00
2023-02-12T14:08:06.055Z,27.43
2023-02-12T14:10:41.462Z,24.20
2023-02-12T14:13:24.015Z,23.50
2023-02-12T14:15:57.918Z,26.77
2023-02-12T14:18:32.199Z,26.70
2023-02-12T14:21:44.170Z,28.80
2023-02-12T14:24:53.047Z,25.80
2023-02-12T14:27:31.451Z,23.77
2023-02-12T14:30:40.295Z,24.93
2023-02-12T14:33:27.015Z,112.63
2023-02-12T14:36:40.772Z,50.30
2023-02-12T14:39:30.789Z,35.87
2023-02-12T14:42:45.824Z,24.10
2023-02-12T14:45:32.567Z,28.50
2023-02-12T14:48:01.027Z,26.90
2023-02-12T14:50:50.139Z,28.57
2023-02-12T14:53:31.124Z,23.60
2023-02-12T14:56:01.016Z,26.30
2023-02-12T14:58:31.576Z,27.47
2023-02-12T15:01:03.600Z,33.93
2023-02-12T15:03:43.202Z,27.33
2023-02-12T15:06:18.878Z,31.23
2023-02-12T15:08:53.904Z,25.43
2023-02-12T15:11:34.988Z,24.30
2023-02-12T15:14:07.418Z,25.03
2023-02-12T15:16:47.017Z,24.87
2023-02-12T15:19:35.539Z,25.80
2023-02-12T15:22:05.416Z,24.73
2023-02-12T15:24:33.865Z,28.27
2023-02-12T15:27:02.316Z,28.17
2023-02-12T15:29:38.391Z,26.80
2023-02-12T15:32:10.387Z,25.70
2023-02-12T15:34:41.859Z,28.23
2023-02-12T15:37:22.222Z,28.87
2023-02-12T15:39:53.499Z,26.20
2023-02-12T15:42:30.774Z,26.47
2023-02-12T15:45:19.933Z,27.10
2023-02-12T15:48:01.581Z,30.17
2023-02-12T15:50:32.438Z,29.73
2023-02-12T15:53:02.666Z,26.20
2023-02-12T15:55:39.645Z,29.00
2023-02-12T15:58:23.788Z,26.50
2023-02-12T16:00:54.095Z,29.97
2023-02-12T16:03:25.503Z,28.37
2023-02-12T16:05:58.808Z,33.73
2023-02-12T16:08:28.872Z,26.60
2023-02-12T16:10:57.948Z,31.47
2023-02-12T16:13:33.084Z,29.47
2023-02-12T16:16:23.985Z,27.80
2023-02-12T16:19:09.127Z,32.80
2023-02-12T16:21:40.061Z,34.53
2023-02-12T16:24:28.571Z,27.00
2023-02-12T16:26:58.914Z,22.80
2023-02-12T16:29:27.755Z,30.47
2023-02-12T16:32:01.116Z,24.70
2023-02-12T16:34:39.067Z,31.67
2023-02-12T16:37:49.066Z,31.60
2023-02-12T16:40:37.537Z,31.07
2023-02-12T16:43:27.922Z,30.73
2023-02-12T16:46:07.194Z,31.43
2023-02-12T16:48:41.361Z,29.77
2023-02-12T16:51:23.582Z,25.90
2023-02-12T16:53:54.099Z,28.10
2023-02-12T16:56:26.353Z,28.53
2023-02-12T16:58:57.971Z,30.07
2023-02-12T17:01:30.042Z,29.30
2023-02-12T17:04:00.564Z,32.37
2023-02-12T17:06:32.208Z,29.47
2023-02-12T17:09:01.453Z,32.23
2023-02-12T17:11:31.686Z,33.70
2023-02-12T17:14:00.053Z,28.00
2023-02-12T17:16:31.315Z,28.93
2023-02-12T17:19:01.004Z,30.73
2023-02-12T17:21:37.817Z,33.57
2023-02-12T17:24:07.538Z,33.10
2023-02-12T17:26:37.293Z,34.63
2023-02-12T17:29:06.601Z,32.77
2023-02-12T17:31:36.613Z,33.43
2023-02-12T17:34:06.264Z,32.20
2023-02-12T17:36:35.944Z,31.10
2023-02-12T17:39:06.759Z,37.23
2023-02-12T17:41:36.898Z,34.33
2023-02-12T17:44:05.722Z,34.50
2023-02-12T17:46:34.798Z,30.03
2023-02-12T17:49:04.658Z,32.87
2023-02-12T17:51:33.221Z,31.77
2023-02-12T17:54:01.583Z,28.97
2023-02-12T17:56:30.059Z,32.57
2023-02-12T17:58:59.947Z,37.90
2023-02-12T18:01:29.038Z,37.00
2023-02-12T18:03:59.760Z,36.40
2023-02-12T18:06:31.193Z,33.80
2023-02-12T18:09:01.734Z,33.40
2023-02-12T18:11:32.138Z,35.60
2023-02-12T18:14:02.587Z,38.17
2023-02-12T18:16:35.715Z,36.23
2023-02-12T18:19:05.754Z,42.90
2023-02-12T18:21:35.035Z,33.30
2023-02-12T18:24:03.739Z,34.00
2023-02-12T18:26:32.520Z,34.73
2023-02-12T18:29:02.889Z,37.87
2023-02-12T18:31:32.117Z,33.80
2023-02-12T18:34:00.563Z,31.13
2023-02-12T18:36:28.939Z,41.83
2023-02-12T18:38:57.652Z,32.00
2023-02-12T18:41:30.091Z,36.30
2023-02-12T18:44:00.920Z,36.87
2023-02-12T18:46:32.070Z,35.00
2023-02-12T18:49:01.663Z,33.33
2023-02-12T18:51:33.762Z,40.17
2023-02-12T18:54:07.302Z,38.83
2023-02-12T18:56:38.060Z,38.60
2023-02-12T18:59:09.550Z,38.43
2023-02-12T19:01:38.199Z,35.80
2023-02-12T19:04:09.365Z,30.10
2023-02-12T19:06:42.773Z,36.17
2023-02-12T19:09:16.505Z,36.10
2023-02-12T19:11:46.690Z,37.50
2023-02-12T19:14:18.111Z,35.73
2023-02-12T19:16:47.707Z,39.33
2023-02-12T19:19:17.819Z,39.90
2023-02-12T19:21:46.419Z,43.10
2023-02-12T19:24:16.871Z,42.07
2023-02-12T19:26:46.059Z,37.83
2023-02-12T19:29:16.407Z,33.77
2023-02-12T19:31:47.931Z,41.70
2023-02-12T19:34:19.660Z,36.93
2023-02-12T19:36:50.538Z,35.90
2023-02-12T19:39:21.779Z,39.73
2023-02-12T19:41:51.174Z,37.73
2023-02-12T19:44:24.687Z,37.77
2023-02-12T19:46:54.931Z,33.83
2023-02-12T19:49:26.775Z,35.63
2023-02-12T19:51:55.671Z,35.30
2023-02-12T19:54:25.348Z,38.03
2023-02-12T19:56:55.219Z,39.10
2023-02-12T19:59:26.917Z,37.23
2023-02-12T20:01:56.529Z,37.33
2023-02-12T20:04:25.989Z,37.97
2023-02-12T20:06:54.741Z,38.10
2023-02-12T20:09:24.227Z,31.70
2023-02-12T20:11:53.376Z,36.10
2023-02-12T20:14:22.938Z,42.07
2023-02-12T20:16:56.276Z,33.43
2023-02-12T20:19:27.766Z,33.97
2023-02-12T20:21:57.490Z,40.20
2023-02-12T20:24:29.652Z,38.53
2023-02-12T20:27:00.185Z,38.43
2023-02-12T20:29:28.881Z,38.83
2023-02-12T20:31:58.906Z,33.87
2023-02-12T20:34:28.174Z,38.67
2023-02-12T20:36:56.587Z,43.33
2023-02-12T20:39:24.925Z,39.87
2023-02-12T20:41:53.231Z,44.50
2023-02-12T20:44:22.960Z,35.23
2023-02-12T20:46:56.520Z,38.03
2023-02-12T20:49:27.879Z,36.00
2023-02-12T20:51:56.365Z,37.23
2023-02-12T20:54:25.059Z,34.97
2023-02-12T20:56:53.836Z,37.87
2023-02-12T20:59:22.265Z,38.37
2023-02-12T21:01:51.031Z,32.80
2023-02-12T21:04:20.820Z,36.37
2023-02-12T21:06:50.696Z,41.03
2023-02-12T21:09:19.917Z,36.63
2023-02-12T21:11:49.201Z,30.13
2023-02-12T21:14:22.369Z,38.47
2023-02-12T21:16:52.437Z,40.93
2023-02-12T21:19:20.953Z,37.87
2023-02-12T21:21:50.708Z,40.20
2023-02-12T21:24:22.982Z,36.27
2023-02-12T21:26:52.194Z,34.27
2023-02-12T21:29:21.208Z,36.63
2023-02-12T21:31:51.762Z,36.20
2023-02-12T21:34:22.960Z,37.53
2023-02-12T21:36:55.997Z,37.73
2023-02-12T21:39:29.575Z,40.77
2023-02-12T21:42:01.629Z,35.00
2023-02-12T21:44:30.998Z,38.03
2023-02-12T21:46:59.732Z,34.13
2023-02-12T21:49:28.958Z,44.43
2023-02-12T21:52:02.046Z,35.27
2023-02-12T21:54:32.026Z,36.00
2023-02-12T21:57:01.744Z,37.90
2023-02-12T21:59:32.343Z,34.53
2023-02-12T22:02:01.865Z,37.67
2023-02-12T22:04:30.541Z,45.67
2023-02-12T22:07:03.398Z,36.90
2023-02-12T22:09:32.219Z,34.30
2023-02-12T22:12:00.572Z,32.70
2023-02-12T22:14:28.939Z,35.20
2023-02-12T22:16:57.338Z,40.23
2023-02-12T22:19:25.755Z,37.70
2023-02-12T22:21:54.080Z,40.23
2023-02-12T22:24:23.990Z,32.03
2023-02-12T22:26:52.417Z,39.00
2023-02-12T22:29:22.894Z,31.33
2023-02-12T22:31:52.005Z,36.77
2023-02-12T22:34:20.698Z,31.47
2023-02-12T22:36:49.695Z,38.83
2023-02-12T22:39:18.669Z,33.20
2023-02-12T22:41:48.532Z,38.20
2023-02-12T22:44:20.751Z,43.73
2023-02-12T22:46:50.139Z,34.90
2023-02-12T22:49:18.820Z,36.93
2023-02-12T22:51:47.287Z,40.00
2023-02-12T22:54:18.090Z,45.97
2023-02-12T22:56:51.901Z,35.90
2023-02-12T22:59:20.451Z,37.40
2023-02-12T23:01:48.924Z,43.57
2023-02-12T23:04:19.279Z,39.50
2023-02-12T23:06:48.190Z,41.47
2023-02-12T23:09:19.389Z,34.23
2023-02-12T23:11:49.580Z,39.07
2023-02-12T23:14:18.352Z,33.43
2023-02-12T23:16:47.720Z,37.87
2023-02-12T23:19:16.599Z,39.60
2023-02-12T23:21:45.010Z,36.67
2023-02-12T23:24:15.414Z,35.23
2023-02-12T23:26:44.003Z,33.07
2023-02-12T23:29:13.825Z,37.10
2023-02-12T23:31:42.302Z,36.27
2023-02-12T23:34:10.879Z,38.77
2023-02-12T23:36:39.257Z,36.53
2023-02-12T23:39:09.501Z,38.03
2023-02-12T23:41:37.912Z,40.33
2023-02-12T23:44:06.946Z,39.23
2023-02-12T23:46:37.052Z,37.90
2023-02-12T23:49:05.562Z,44.00
2023-02-12T23:51:34.757Z,40.40
2023-02-12T23:54:03.194Z,41.53
2023-02-12T23:56:31.657Z,37.23
2023-02-12T23:59:00.028Z,38.13
